sensor_id;sensor_type;location;lat;lon;timestamp;P1;durP1;ratioP1;P2;durP2;ratioP2
54641;SDS011;40536;53.194;5.728;2023-08-17T00:01:55;63.40;;;60.13;;
54641;SDS011;40536;53.194;5.728;2023-08-17T00:04:20;55.28;;;52.15;;
54641;SDS011;40536;53.194;5.728;2023-08-17T00:06:46;51.10;;;48.40;;
54641;SDS011;40536;53.194;5.728;2023-08-17T00:09:12;44.70;;;42.28;;
54641;SDS011;40536;53.194;5.728;2023-08-17T00:11:38;43.42;;;41.13;;
54641;SDS011;40536;53.194;5.728;2023-08-17T00:14:04;40.47;;;38.20;;
54641;SDS011;40536;53.194;5.728;2023-08-17T00:16:30;41.38;;;39.00;;
54641;SDS011;40536;53.194;5.728;2023-08-17T00:18:56;43.70;;;41.35;;
54641;SDS011;40536;53.194;5.728;2023-08-17T00:21:22;47.30;;;44.67;;
54641;SDS011;40536;53.194;5.728;2023-08-17T00:23:48;46.90;;;44.42;;
54641;SDS011;40536;53.194;5.728;2023-08-17T00:26:14;49.33;;;46.58;;
54641;SDS011;40536;53.194;5.728;2023-08-17T00:28:40;39.80;;;37.13;;
54641;SDS011;40536;53.194;5.728;2023-08-17T00:31:06;40.22;;;38.10;;
54641;SDS011;40536;53.194;5.728;2023-08-17T00:33:31;39.25;;;37.08;;
54641;SDS011;40536;53.194;5.728;2023-08-17T00:35:59;44.83;;;42.28;;
54641;SDS011;40536;53.194;5.728;2023-08-17T00:38:24;50.10;;;47.40;;
54641;SDS011;40536;53.194;5.728;2023-08-17T00:40:50;50.22;;;47.45;;
54641;SDS011;40536;53.194;5.728;2023-08-17T00:43:16;54.65;;;51.88;;
54641;SDS011;40536;53.194;5.728;2023-08-17T00:45:41;46.25;;;43.85;;
54641;SDS011;40536;53.194;5.728;2023-08-17T00:48:10;51.55;;;49.00;;
54641;SDS011;40536;53.194;5.728;2023-08-17T00:50:36;45.88;;;43.35;;
54641;SDS011;40536;53.194;5.728;2023-08-17T00:53:03;41.20;;;38.97;;
54641;SDS011;40536;53.194;5.728;2023-08-17T00:55:29;37.85;;;35.53;;
54641;SDS011;40536;53.194;5.728;2023-08-17T00:57:56;35.08;;;33.03;;
54641;SDS011;40536;53.194;5.728;2023-08-17T01:00:22;34.83;;;32.80;;
54641;SDS011;40536;53.194;5.728;2023-08-17T01:02:51;33.75;;;31.55;;
54641;SDS011;40536;53.194;5.728;2023-08-17T01:05:18;35.60;;;33.55;;
54641;SDS011;40536;53.194;5.728;2023-08-17T01:07:44;40.30;;;38.00;;
54641;SDS011;40536;53.194;5.728;2023-08-17T01:10:09;39.30;;;37.03;;
54641;SDS011;40536;53.194;5.728;2023-08-17T01:12:56;45.92;;;43.45;;
54641;SDS011;40536;53.194;5.728;2023-08-17T01:18:26;52.67;;;50.00;;
54641;SDS011;40536;53.194;5.728;2023-08-17T01:20:56;50.05;;;47.42;;
54641;SDS011;40536;53.194;5.728;2023-08-17T01:23:22;61.05;;;57.65;;
54641;SDS011;40536;53.194;5.728;2023-08-17T01:25:48;62.47;;;59.40;;
54641;SDS011;40536;53.194;5.728;2023-08-17T01:28:14;51.97;;;49.22;;
54641;SDS011;40536;53.194;5.728;2023-08-17T01:30:55;54.10;;;51.25;;
54641;SDS011;40536;53.194;5.728;2023-08-17T01:33:26;49.35;;;46.60;;
54641;SDS011;40536;53.194;5.728;2023-08-17T01:38:24;43.78;;;41.25;;
54641;SDS011;40536;53.194;5.728;2023-08-17T01:40:52;37.53;;;35.47;;
54641;SDS011;40536;53.194;5.728;2023-08-17T01:43:19;41.70;;;39.42;;
54641;SDS011;40536;53.194;5.728;2023-08-17T01:45:45;34.25;;;31.85;;
54641;SDS011;40536;53.194;5.728;2023-08-17T01:48:11;35.00;;;32.78;;
54641;SDS011;40536;53.194;5.728;2023-08-17T01:50:36;39.70;;;37.30;;
54641;SDS011;40536;53.194;5.728;2023-08-17T01:53:02;36.00;;;34.05;;
54641;SDS011;40536;53.194;5.728;2023-08-17T01:55:28;41.72;;;39.40;;
54641;SDS011;40536;53.194;5.728;2023-08-17T01:57:53;40.80;;;38.70;;
54641;SDS011;40536;53.194;5.728;2023-08-17T02:00:19;48.33;;;45.80;;
54641;SDS011;40536;53.194;5.728;2023-08-17T02:02:45;64.13;;;60.58;;
54641;SDS011;40536;53.194;5.728;2023-08-17T02:05:11;67.78;;;64.28;;
54641;SDS011;40536;53.194;5.728;2023-08-17T02:07:36;74.60;;;71.00;;
54641;SDS011;40536;53.194;5.728;2023-08-17T02:10:02;109.10;;;103.78;;
54641;SDS011;40536;53.194;5.728;2023-08-17T02:12:28;94.00;;;89.60;;
54641;SDS011;40536;53.194;5.728;2023-08-17T02:14:53;91.68;;;87.20;;
54641;SDS011;40536;53.194;5.728;2023-08-17T02:17:19;84.03;;;79.78;;
54641;SDS011;40536;53.194;5.728;2023-08-17T02:19:46;75.65;;;71.85;;
54641;SDS011;40536;53.194;5.728;2023-08-17T02:22:13;75.80;;;71.80;;
54641;SDS011;40536;53.194;5.728;2023-08-17T02:24:39;70.72;;;67.25;;
54641;SDS011;40536;53.194;5.728;2023-08-17T02:27:05;79.53;;;75.50;;
54641;SDS011;40536;53.194;5.728;2023-08-17T02:29:31;79.75;;;75.80;;
54641;SDS011;40536;53.194;5.728;2023-08-17T02:31:57;81.50;;;77.45;;
54641;SDS011;40536;53.194;5.728;2023-08-17T02:34:23;77.32;;;73.43;;
54641;SDS011;40536;53.194;5.728;2023-08-17T02:36:48;69.80;;;66.10;;
54641;SDS011;40536;53.194;5.728;2023-08-17T02:39:17;60.63;;;57.42;;
54641;SDS011;40536;53.194;5.728;2023-08-17T02:41:43;60.22;;;57.20;;
54641;SDS011;40536;53.194;5.728;2023-08-17T02:44:10;68.70;;;65.32;;
54641;SDS011;40536;53.194;5.728;2023-08-17T02:46:35;86.20;;;82.05;;
54641;SDS011;40536;53.194;5.728;2023-08-17T02:49:01;114.43;;;108.88;;
54641;SDS011;40536;53.194;5.728;2023-08-17T02:51:27;124.88;;;119.13;;
54641;SDS011;40536;53.194;5.728;2023-08-17T02:53:53;198.98;;;190.00;;
54641;SDS011;40536;53.194;5.728;2023-08-17T02:56:18;275.50;;;263.08;;
54641;SDS011;40536;53.194;5.728;2023-08-17T02:58:44;328.27;;;313.45;;
54641;SDS011;40536;53.194;5.728;2023-08-17T03:01:10;347.35;;;330.83;;
54641;SDS011;40536;53.194;5.728;2023-08-17T03:03:35;390.77;;;371.65;;
54641;SDS011;40536;53.194;5.728;2023-08-17T03:06:02;384.80;;;366.52;;
54641;SDS011;40536;53.194;5.728;2023-08-17T03:08:28;325.60;;;310.33;;
54641;SDS011;40536;53.194;5.728;2023-08-17T03:10:54;390.90;;;371.40;;
54641;SDS011;40536;53.194;5.728;2023-08-17T03:13:19;317.58;;;302.73;;
54641;SDS011;40536;53.194;5.728;2023-08-17T03:15:46;354.13;;;337.33;;
54641;SDS011;40536;53.194;5.728;2023-08-17T03:18:11;440.90;;;417.27;;
54641;SDS011;40536;53.194;5.728;2023-08-17T03:20:37;340.85;;;325.23;;
54641;SDS011;40536;53.194;5.728;2023-08-17T03:23:03;295.67;;;282.20;;
54641;SDS011;40536;53.194;5.728;2023-08-17T03:25:32;273.27;;;261.23;;
54641;SDS011;40536;53.194;5.728;2023-08-17T03:27:59;264.63;;;252.95;;
54641;SDS011;40536;53.194;5.728;2023-08-17T03:30:25;200.27;;;191.45;;
54641;SDS011;40536;53.194;5.728;2023-08-17T03:32:51;177.32;;;169.48;;
54641;SDS011;40536;53.194;5.728;2023-08-17T03:35:16;130.60;;;124.32;;
54641;SDS011;40536;53.194;5.728;2023-08-17T03:37:44;151.65;;;144.63;;
54641;SDS011;40536;53.194;5.728;2023-08-17T03:40:10;130.18;;;124.18;;
54641;SDS011;40536;53.194;5.728;2023-08-17T03:42:36;133.05;;;126.97;;
54641;SDS011;40536;53.194;5.728;2023-08-17T03:45:02;151.93;;;145.15;;
54641;SDS011;40536;53.194;5.728;2023-08-17T03:47:28;97.57;;;92.93;;
54641;SDS011;40536;53.194;5.728;2023-08-17T03:49:54;95.22;;;90.55;;
54641;SDS011;40536;53.194;5.728;2023-08-17T03:52:20;109.22;;;104.00;;
54641;SDS011;40536;53.194;5.728;2023-08-17T03:54:45;112.03;;;106.88;;
54641;SDS011;40536;53.194;5.728;2023-08-17T03:57:12;140.27;;;133.93;;
54641;SDS011;40536;53.194;5.728;2023-08-17T03:59:37;176.30;;;168.25;;
54641;SDS011;40536;53.194;5.728;2023-08-17T04:02:03;172.05;;;164.38;;
54641;SDS011;40536;53.194;5.728;2023-08-17T04:04:29;183.40;;;174.88;;
54641;SDS011;40536;53.194;5.728;2023-08-17T04:06:54;182.82;;;174.75;;
54641;SDS011;40536;53.194;5.728;2023-08-17T04:09:20;138.93;;;132.30;;
54641;SDS011;40536;53.194;5.728;2023-08-17T04:11:45;143.73;;;137.23;;
54641;SDS011;40536;53.194;5.728;2023-08-17T04:14:11;160.27;;;153.23;;
54641;SDS011;40536;53.194;5.728;2023-08-17T04:16:37;117.38;;;112.07;;
54641;SDS011;40536;53.194;5.728;2023-08-17T04:19:03;115.60;;;110.28;;
54641;SDS011;40536;53.194;5.728;2023-08-17T04:21:28;105.57;;;100.50;;
54641;SDS011;40536;53.194;5.728;2023-08-17T04:23:54;99.32;;;94.80;;
54641;SDS011;40536;53.194;5.728;2023-08-17T04:26:20;111.78;;;106.60;;
54641;SDS011;40536;53.194;5.728;2023-08-17T04:28:46;133.90;;;127.90;;
54641;SDS011;40536;53.194;5.728;2023-08-17T04:31:12;149.23;;;142.52;;
54641;SDS011;40536;53.194;5.728;2023-08-17T04:33:39;180.57;;;172.57;;
54641;SDS011;40536;53.194;5.728;2023-08-17T04:36:07;223.90;;;213.98;;
54641;SDS011;40536;53.194;5.728;2023-08-17T04:38:33;267.30;;;255.07;;
54641;SDS011;40536;53.194;5.728;2023-08-17T04:40:58;250.35;;;239.32;;
54641;SDS011;40536;53.194;5.728;2023-08-17T04:43:24;236.80;;;226.65;;
54641;SDS011;40536;53.194;5.728;2023-08-17T04:45:50;300.95;;;287.05;;
54641;SDS011;40536;53.194;5.728;2023-08-17T04:48:15;273.50;;;260.65;;
54641;SDS011;40536;53.194;5.728;2023-08-17T04:50:41;285.35;;;272.30;;
54641;SDS011;40536;53.194;5.728;2023-08-17T04:53:07;291.48;;;278.38;;
54641;SDS011;40536;53.194;5.728;2023-08-17T04:55:32;275.95;;;263.65;;
54641;SDS011;40536;53.194;5.728;2023-08-17T04:57:58;230.40;;;220.30;;
54641;SDS011;40536;53.194;5.728;2023-08-17T05:00:23;262.80;;;251.15;;
54641;SDS011;40536;53.194;5.728;2023-08-17T05:02:55;202.52;;;193.38;;
54641;SDS011;40536;53.194;5.728;2023-08-17T05:05:21;172.35;;;164.45;;
54641;SDS011;40536;53.194;5.728;2023-08-17T05:07:47;206.85;;;197.88;;
54641;SDS011;40536;53.194;5.728;2023-08-17T05:10:13;251.30;;;240.15;;
54641;SDS011;40536;53.194;5.728;2023-08-17T05:12:38;231.80;;;221.50;;
54641;SDS011;40536;53.194;5.728;2023-08-17T05:15:04;272.08;;;260.05;;
54641;SDS011;40536;53.194;5.728;2023-08-17T05:17:30;253.77;;;242.35;;
54641;SDS011;40536;53.194;5.728;2023-08-17T05:19:56;231.35;;;220.82;;
54641;SDS011;40536;53.194;5.728;2023-08-17T05:22:21;206.38;;;197.45;;
54641;SDS011;40536;53.194;5.728;2023-08-17T05:24:47;198.60;;;189.93;;
54641;SDS011;40536;53.194;5.728;2023-08-17T05:27:12;135.88;;;129.95;;
54641;SDS011;40536;53.194;5.728;2023-08-17T05:29:38;140.38;;;134.00;;
54641;SDS011;40536;53.194;5.728;2023-08-17T05:32:04;104.57;;;99.88;;
54641;SDS011;40536;53.194;5.728;2023-08-17T05:34:30;85.03;;;80.93;;
54641;SDS011;40536;53.194;5.728;2023-08-17T05:36:56;62.72;;;59.47;;
54641;SDS011;40536;53.194;5.728;2023-08-17T05:39:22;42.75;;;40.47;;
54641;SDS011;40536;53.194;5.728;2023-08-17T05:41:48;39.80;;;37.60;;
54641;SDS011;40536;53.194;5.728;2023-08-17T05:44:14;33.85;;;32.10;;
54641;SDS011;40536;53.194;5.728;2023-08-17T05:46:40;35.47;;;33.58;;
54641;SDS011;40536;53.194;5.728;2023-08-17T05:49:05;33.15;;;31.40;;
54641;SDS011;40536;53.194;5.728;2023-08-17T05:51:31;25.30;;;23.70;;
54641;SDS011;40536;53.194;5.728;2023-08-17T05:53:57;16.80;;;15.60;;
54641;SDS011;40536;53.194;5.728;2023-08-17T05:56:22;13.23;;;12.32;;
54641;SDS011;40536;53.194;5.728;2023-08-17T05:58:48;11.48;;;10.57;;
54641;SDS011;40536;53.194;5.728;2023-08-17T06:01:14;10.50;;;9.80;;
54641;SDS011;40536;53.194;5.728;2023-08-17T06:03:39;9.63;;;8.77;;
54641;SDS011;40536;53.194;5.728;2023-08-17T06:06:05;10.23;;;9.38;;
54641;SDS011;40536;53.194;5.728;2023-08-17T06:08:31;10.10;;;8.00;;
54641;SDS011;40536;53.194;5.728;2023-08-17T06:10:57;8.95;;;8.18;;
54641;SDS011;40536;53.194;5.728;2023-08-17T06:13:22;8.93;;;8.23;;
54641;SDS011;40536;53.194;5.728;2023-08-17T06:15:48;9.65;;;8.10;;
54641;SDS011;40536;53.194;5.728;2023-08-17T06:18:14;9.63;;;8.80;;
54641;SDS011;40536;53.194;5.728;2023-08-17T06:20:40;9.27;;;8.57;;
54641;SDS011;40536;53.194;5.728;2023-08-17T06:23:06;8.15;;;7.45;;
54641;SDS011;40536;53.194;5.728;2023-08-17T06:25:31;8.45;;;7.65;;
54641;SDS011;40536;53.194;5.728;2023-08-17T06:27:57;9.95;;;9.05;;
54641;SDS011;40536;53.194;5.728;2023-08-17T06:30:23;10.00;;;9.27;;
54641;SDS011;40536;53.194;5.728;2023-08-17T06:32:50;10.63;;;9.35;;
54641;SDS011;40536;53.194;5.728;2023-08-17T06:35:16;8.68;;;7.95;;
54641;SDS011;40536;53.194;5.728;2023-08-17T06:37:42;8.73;;;7.80;;
54641;SDS011;40536;53.194;5.728;2023-08-17T06:40:07;9.65;;;8.75;;
54641;SDS011;40536;53.194;5.728;2023-08-17T06:42:36;13.38;;;12.27;;
54641;SDS011;40536;53.194;5.728;2023-08-17T06:45:02;18.85;;;17.65;;
54641;SDS011;40536;53.194;5.728;2023-08-17T06:47:28;11.73;;;10.85;;
54641;SDS011;40536;53.194;5.728;2023-08-17T06:49:54;11.15;;;10.20;;
54641;SDS011;40536;53.194;5.728;2023-08-17T06:52:22;9.35;;;8.45;;
54641;SDS011;40536;53.194;5.728;2023-08-17T06:54:48;10.43;;;9.43;;
54641;SDS011;40536;53.194;5.728;2023-08-17T06:57:14;11.77;;;10.77;;
54641;SDS011;40536;53.194;5.728;2023-08-17T06:59:39;11.52;;;10.55;;
54641;SDS011;40536;53.194;5.728;2023-08-17T07:02:05;11.93;;;10.90;;
54641;SDS011;40536;53.194;5.728;2023-08-17T07:04:31;12.27;;;11.07;;
54641;SDS011;40536;53.194;5.728;2023-08-17T07:06:57;13.32;;;12.23;;
54641;SDS011;40536;53.194;5.728;2023-08-17T07:09:22;17.95;;;16.58;;
54641;SDS011;40536;53.194;5.728;2023-08-17T07:11:48;13.02;;;12.13;;
54641;SDS011;40536;53.194;5.728;2023-08-17T07:14:13;15.48;;;14.45;;
54641;SDS011;40536;53.194;5.728;2023-08-17T07:16:39;12.68;;;11.68;;
54641;SDS011;40536;53.194;5.728;2023-08-17T07:19:05;16.48;;;15.30;;
54641;SDS011;40536;53.194;5.728;2023-08-17T07:21:30;18.58;;;17.48;;
54641;SDS011;40536;53.194;5.728;2023-08-17T07:23:56;19.52;;;18.42;;
54641;SDS011;40536;53.194;5.728;2023-08-17T07:26:22;24.40;;;22.90;;
54641;SDS011;40536;53.194;5.728;2023-08-17T07:28:48;14.50;;;13.52;;
54641;SDS011;40536;53.194;5.728;2023-08-17T07:31:14;12.77;;;11.68;;
54641;SDS011;40536;53.194;5.728;2023-08-17T07:33:39;11.25;;;10.35;;
54641;SDS011;40536;53.194;5.728;2023-08-17T07:36:05;10.48;;;9.45;;
54641;SDS011;40536;53.194;5.728;2023-08-17T07:38:31;7.25;;;6.18;;
54641;SDS011;40536;53.194;5.728;2023-08-17T07:40:56;7.53;;;5.45;;
54641;SDS011;40536;53.194;5.728;2023-08-17T07:43:23;9.50;;;7.00;;
54641;SDS011;40536;53.194;5.728;2023-08-17T07:45:55;10.02;;;6.50;;
54641;SDS011;40536;53.194;5.728;2023-08-17T07:48:22;7.82;;;7.13;;
54641;SDS011;40536;53.194;5.728;2023-08-17T07:50:48;8.93;;;6.55;;
54641;SDS011;40536;53.194;5.728;2023-08-17T07:53:15;7.72;;;6.43;;
54641;SDS011;40536;53.194;5.728;2023-08-17T07:55:41;7.53;;;6.80;;
54641;SDS011;40536;53.194;5.728;2023-08-17T07:58:07;8.82;;;7.93;;
54641;SDS011;40536;53.194;5.728;2023-08-17T08:00:33;9.02;;;7.10;;
54641;SDS011;40536;53.194;5.728;2023-08-17T08:02:58;10.23;;;9.30;;
54641;SDS011;40536;53.194;5.728;2023-08-17T08:05:24;11.93;;;11.02;;
54641;SDS011;40536;53.194;5.728;2023-08-17T08:07:50;12.15;;;11.25;;
54641;SDS011;40536;53.194;5.728;2023-08-17T08:10:16;7.90;;;7.20;;
54641;SDS011;40536;53.194;5.728;2023-08-17T08:12:42;7.00;;;6.30;;
54641;SDS011;40536;53.194;5.728;2023-08-17T08:15:07;6.88;;;6.25;;
54641;SDS011;40536;53.194;5.728;2023-08-17T08:17:33;8.52;;;6.38;;
54641;SDS011;40536;53.194;5.728;2023-08-17T08:19:59;7.75;;;7.05;;
54641;SDS011;40536;53.194;5.728;2023-08-17T08:22:25;7.63;;;6.40;;
54641;SDS011;40536;53.194;5.728;2023-08-17T08:24:50;7.43;;;6.10;;
54641;SDS011;40536;53.194;5.728;2023-08-17T08:27:16;6.25;;;5.75;;
54641;SDS011;40536;53.194;5.728;2023-08-17T08:29:41;7.45;;;5.10;;
54641;SDS011;40536;53.194;5.728;2023-08-17T08:32:07;5.18;;;4.68;;
54641;SDS011;40536;53.194;5.728;2023-08-17T08:34:33;5.68;;;4.90;;
54641;SDS011;40536;53.194;5.728;2023-08-17T08:36:58;6.63;;;4.70;;
54641;SDS011;40536;53.194;5.728;2023-08-17T08:39:25;5.75;;;4.55;;
54641;SDS011;40536;53.194;5.728;2023-08-17T08:41:51;4.68;;;3.83;;
54641;SDS011;40536;53.194;5.728;2023-08-17T08:44:18;5.88;;;3.80;;
54641;SDS011;40536;53.194;5.728;2023-08-17T08:46:44;5.93;;;3.60;;
54641;SDS011;40536;53.194;5.728;2023-08-17T08:49:11;6.65;;;4.32;;
54641;SDS011;40536;53.194;5.728;2023-08-17T08:51:41;5.20;;;4.70;;
54641;SDS011;40536;53.194;5.728;2023-08-17T08:54:11;6.97;;;5.60;;
54641;SDS011;40536;53.194;5.728;2023-08-17T08:56:39;8.48;;;6.95;;
54641;SDS011;40536;53.194;5.728;2023-08-17T08:59:08;6.90;;;6.30;;
54641;SDS011;40536;53.194;5.728;2023-08-17T09:01:35;6.28;;;5.10;;
54641;SDS011;40536;53.194;5.728;2023-08-17T09:04:03;6.57;;;5.68;;
54641;SDS011;40536;53.194;5.728;2023-08-17T09:06:30;5.95;;;5.38;;
54641;SDS011;40536;53.194;5.728;2023-08-17T09:08:57;7.78;;;5.05;;
54641;SDS011;40536;53.194;5.728;2023-08-17T09:11:23;5.40;;;4.50;;
54641;SDS011;40536;53.194;5.728;2023-08-17T09:13:49;7.53;;;5.25;;
54641;SDS011;40536;53.194;5.728;2023-08-17T09:16:15;4.57;;;4.10;;
54641;SDS011;40536;53.194;5.728;2023-08-17T09:18:40;9.10;;;4.53;;
54641;SDS011;40536;53.194;5.728;2023-08-17T09:21:07;7.57;;;4.20;;
54641;SDS011;40536;53.194;5.728;2023-08-17T09:23:32;5.63;;;4.50;;
54641;SDS011;40536;53.194;5.728;2023-08-17T09:25:58;5.47;;;4.05;;
54641;SDS011;40536;53.194;5.728;2023-08-17T09:28:33;6.07;;;3.80;;
54641;SDS011;40536;53.194;5.728;2023-08-17T09:31:03;5.03;;;3.38;;
54641;SDS011;40536;53.194;5.728;2023-08-17T09:33:29;5.22;;;3.50;;
54641;SDS011;40536;53.194;5.728;2023-08-17T09:35:56;6.18;;;3.40;;
54641;SDS011;40536;53.194;5.728;2023-08-17T09:38:23;4.75;;;3.50;;
54641;SDS011;40536;53.194;5.728;2023-08-17T09:40:49;5.85;;;3.90;;
54641;SDS011;40536;53.194;5.728;2023-08-17T09:43:15;4.10;;;3.40;;
54641;SDS011;40536;53.194;5.728;2023-08-17T09:45:43;4.97;;;3.63;;
54641;SDS011;40536;53.194;5.728;2023-08-17T09:48:15;4.53;;;3.40;;
54641;SDS011;40536;53.194;5.728;2023-08-17T09:50:42;5.20;;;3.85;;
54641;SDS011;40536;53.194;5.728;2023-08-17T09:53:16;9.23;;;3.85;;
54641;SDS011;40536;53.194;5.728;2023-08-17T09:55:43;7.22;;;3.72;;
54641;SDS011;40536;53.194;5.728;2023-08-17T09:58:10;5.68;;;3.60;;
54641;SDS011;40536;53.194;5.728;2023-08-17T10:00:49;10.77;;;3.60;;
54641;SDS011;40536;53.194;5.728;2023-08-17T10:03:15;6.45;;;3.28;;
54641;SDS011;40536;53.194;5.728;2023-08-17T10:05:43;6.75;;;3.50;;
54641;SDS011;40536;53.194;5.728;2023-08-17T10:08:11;4.97;;;3.42;;
54641;SDS011;40536;53.194;5.728;2023-08-17T10:10:42;5.55;;;3.55;;
54641;SDS011;40536;53.194;5.728;2023-08-17T10:13:10;4.75;;;3.70;;
54641;SDS011;40536;53.194;5.728;2023-08-17T10:15:55;6.30;;;3.63;;
54641;SDS011;40536;53.194;5.728;2023-08-17T10:21:05;5.65;;;4.15;;
54641;SDS011;40536;53.194;5.728;2023-08-17T10:23:35;7.97;;;4.65;;
54641;SDS011;40536;53.194;5.728;2023-08-17T10:26:03;5.35;;;4.40;;
54641;SDS011;40536;53.194;5.728;2023-08-17T10:28:33;5.10;;;4.60;;
54641;SDS011;40536;53.194;5.728;2023-08-17T10:30:59;5.53;;;5.00;;
54641;SDS011;40536;53.194;5.728;2023-08-17T10:33:25;6.60;;;4.70;;
54641;SDS011;40536;53.194;5.728;2023-08-17T10:35:53;6.90;;;4.30;;
54641;SDS011;40536;53.194;5.728;2023-08-17T10:38:22;4.53;;;4.07;;
54641;SDS011;40536;53.194;5.728;2023-08-17T10:41:07;6.78;;;4.00;;
54641;SDS011;40536;53.194;5.728;2023-08-17T10:43:34;6.15;;;3.65;;
54641;SDS011;40536;53.194;5.728;2023-08-17T10:46:17;5.03;;;3.80;;
54641;SDS011;40536;53.194;5.728;2023-08-17T10:48:43;6.03;;;3.70;;
54641;SDS011;40536;53.194;5.728;2023-08-17T10:51:09;6.32;;;3.85;;
54641;SDS011;40536;53.194;5.728;2023-08-17T10:53:38;9.18;;;3.90;;
54641;SDS011;40536;53.194;5.728;2023-08-17T10:56:08;6.20;;;3.60;;
54641;SDS011;40536;53.194;5.728;2023-08-17T10:58:37;6.03;;;3.63;;
54641;SDS011;40536;53.194;5.728;2023-08-17T11:01:03;6.22;;;4.10;;
54641;SDS011;40536;53.194;5.728;2023-08-17T11:03:28;8.75;;;4.03;;
54641;SDS011;40536;53.194;5.728;2023-08-17T11:05:55;5.30;;;3.85;;
54641;SDS011;40536;53.194;5.728;2023-08-17T11:08:22;5.63;;;3.80;;
54641;SDS011;40536;53.194;5.728;2023-08-17T11:13:34;7.40;;;4.45;;
54641;SDS011;40536;53.194;5.728;2023-08-17T11:16:01;8.13;;;4.63;;
54641;SDS011;40536;53.194;5.728;2023-08-17T11:18:28;6.85;;;4.38;;
54641;SDS011;40536;53.194;5.728;2023-08-17T11:20:54;10.00;;;4.68;;
54641;SDS011;40536;53.194;5.728;2023-08-17T11:23:22;7.43;;;4.50;;
54641;SDS011;40536;53.194;5.728;2023-08-17T11:25:49;7.38;;;5.22;;
54641;SDS011;40536;53.194;5.728;2023-08-17T11:28:17;10.95;;;5.38;;
54641;SDS011;40536;53.194;5.728;2023-08-17T11:30:42;6.75;;;6.10;;
54641;SDS011;40536;53.194;5.728;2023-08-17T11:33:09;8.00;;;5.90;;
54641;SDS011;40536;53.194;5.728;2023-08-17T11:35:38;7.13;;;6.00;;
54641;SDS011;40536;53.194;5.728;2023-08-17T11:38:04;8.20;;;6.78;;
54641;SDS011;40536;53.194;5.728;2023-08-17T11:40:31;8.50;;;7.03;;
54641;SDS011;40536;53.194;5.728;2023-08-17T11:42:57;9.48;;;7.57;;
54641;SDS011;40536;53.194;5.728;2023-08-17T11:45:23;7.20;;;6.60;;
54641;SDS011;40536;53.194;5.728;2023-08-17T11:47:49;7.22;;;6.53;;
54641;SDS011;40536;53.194;5.728;2023-08-17T11:50:14;8.55;;;6.85;;
54641;SDS011;40536;53.194;5.728;2023-08-17T11:52:40;7.22;;;6.53;;
54641;SDS011;40536;53.194;5.728;2023-08-17T11:55:06;8.43;;;7.00;;
54641;SDS011;40536;53.194;5.728;2023-08-17T11:57:35;11.35;;;7.10;;
54641;SDS011;40536;53.194;5.728;2023-08-17T12:00:03;7.53;;;6.72;;
54641;SDS011;40536;53.194;5.728;2023-08-17T12:02:37;10.02;;;7.93;;
54641;SDS011;40536;53.194;5.728;2023-08-17T12:05:07;8.57;;;7.60;;
54641;SDS011;40536;53.194;5.728;2023-08-17T12:07:34;14.07;;;8.68;;
54641;SDS011;40536;53.194;5.728;2023-08-17T12:10:02;9.82;;;8.88;;
54641;SDS011;40536;53.194;5.728;2023-08-17T12:12:28;11.13;;;10.13;;
54641;SDS011;40536;53.194;5.728;2023-08-17T12:14:54;10.48;;;9.48;;
54641;SDS011;40536;53.194;5.728;2023-08-17T12:17:20;10.48;;;9.48;;
54641;SDS011;40536;53.194;5.728;2023-08-17T12:19:49;9.80;;;8.85;;
54641;SDS011;40536;53.194;5.728;2023-08-17T12:22:19;10.35;;;9.35;;
54641;SDS011;40536;53.194;5.728;2023-08-17T12:24:48;10.93;;;9.93;;
54641;SDS011;40536;53.194;5.728;2023-08-17T12:27:13;11.75;;;10.55;;
54641;SDS011;40536;53.194;5.728;2023-08-17T12:29:46;11.23;;;10.13;;
54641;SDS011;40536;53.194;5.728;2023-08-17T12:32:13;11.25;;;10.20;;
54641;SDS011;40536;53.194;5.728;2023-08-17T12:34:40;10.15;;;9.15;;
54641;SDS011;40536;53.194;5.728;2023-08-17T12:37:08;12.23;;;10.30;;
54641;SDS011;40536;53.194;5.728;2023-08-17T12:39:36;10.35;;;9.32;;
54641;SDS011;40536;53.194;5.728;2023-08-17T12:42:03;10.68;;;9.55;;
54641;SDS011;40536;53.194;5.728;2023-08-17T12:44:29;10.68;;;9.68;;
54641;SDS011;40536;53.194;5.728;2023-08-17T12:46:54;14.20;;;12.88;;
54641;SDS011;40536;53.194;5.728;2023-08-17T12:49:20;15.25;;;13.88;;
54641;SDS011;40536;53.194;5.728;2023-08-17T12:51:46;12.18;;;11.07;;
54641;SDS011;40536;53.194;5.728;2023-08-17T12:54:12;10.52;;;9.70;;
54641;SDS011;40536;53.194;5.728;2023-08-17T12:56:37;14.02;;;11.32;;
54641;SDS011;40536;53.194;5.728;2023-08-17T12:59:03;11.90;;;10.82;;
54641;SDS011;40536;53.194;5.728;2023-08-17T13:01:29;11.80;;;9.82;;
54641;SDS011;40536;53.194;5.728;2023-08-17T13:03:54;12.48;;;10.50;;
54641;SDS011;40536;53.194;5.728;2023-08-17T13:06:20;12.15;;;10.18;;
54641;SDS011;40536;53.194;5.728;2023-08-17T13:08:46;10.02;;;9.23;;
54641;SDS011;40536;53.194;5.728;2023-08-17T13:11:12;13.05;;;12.05;;
54641;SDS011;40536;53.194;5.728;2023-08-17T13:13:37;13.40;;;12.40;;
54641;SDS011;40536;53.194;5.728;2023-08-17T13:16:03;14.23;;;13.13;;
54641;SDS011;40536;53.194;5.728;2023-08-17T13:18:29;14.35;;;13.10;;
54641;SDS011;40536;53.194;5.728;2023-08-17T13:20:54;15.20;;;14.00;;
54641;SDS011;40536;53.194;5.728;2023-08-17T13:23:20;15.50;;;14.25;;
54641;SDS011;40536;53.194;5.728;2023-08-17T13:25:46;14.57;;;13.38;;
54641;SDS011;40536;53.194;5.728;2023-08-17T13:28:11;18.35;;;16.85;;
54641;SDS011;40536;53.194;5.728;2023-08-17T13:30:37;19.20;;;17.55;;
54641;SDS011;40536;53.194;5.728;2023-08-17T13:33:04;16.33;;;15.20;;
54641;SDS011;40536;53.194;5.728;2023-08-17T13:35:31;16.30;;;15.13;;
54641;SDS011;40536;53.194;5.728;2023-08-17T13:37:58;18.23;;;16.83;;
54641;SDS011;40536;53.194;5.728;2023-08-17T13:40:23;18.08;;;16.75;;
54641;SDS011;40536;53.194;5.728;2023-08-17T13:42:49;16.42;;;15.13;;
54641;SDS011;40536;53.194;5.728;2023-08-17T13:45:15;16.17;;;14.88;;
54641;SDS011;40536;53.194;5.728;2023-08-17T13:47:41;16.25;;;15.05;;
54641;SDS011;40536;53.194;5.728;2023-08-17T13:50:07;19.58;;;18.27;;
54641;SDS011;40536;53.194;5.728;2023-08-17T13:52:33;20.25;;;18.77;;
54641;SDS011;40536;53.194;5.728;2023-08-17T13:54:58;21.10;;;19.08;;
54641;SDS011;40536;53.194;5.728;2023-08-17T13:57:24;20.70;;;18.90;;
54641;SDS011;40536;53.194;5.728;2023-08-17T13:59:49;17.98;;;16.65;;
54641;SDS011;40536;53.194;5.728;2023-08-17T14:02:15;19.55;;;18.05;;
54641;SDS011;40536;53.194;5.728;2023-08-17T14:04:41;17.83;;;16.45;;
54641;SDS011;40536;53.194;5.728;2023-08-17T14:07:06;17.25;;;15.90;;
54641;SDS011;40536;53.194;5.728;2023-08-17T14:09:32;17.77;;;16.23;;
54641;SDS011;40536;53.194;5.728;2023-08-17T14:11:57;19.05;;;17.85;;
54641;SDS011;40536;53.194;5.728;2023-08-17T14:14:24;18.30;;;17.10;;
54641;SDS011;40536;53.194;5.728;2023-08-17T14:16:50;23.17;;;21.77;;
54641;SDS011;40536;53.194;5.728;2023-08-17T14:19:15;23.25;;;19.05;;
54641;SDS011;40536;53.194;5.728;2023-08-17T14:21:41;21.90;;;20.50;;
54641;SDS011;40536;53.194;5.728;2023-08-17T14:24:07;21.88;;;20.38;;
54641;SDS011;40536;53.194;5.728;2023-08-17T14:26:33;19.25;;;17.85;;
54641;SDS011;40536;53.194;5.728;2023-08-17T14:28:59;23.55;;;22.05;;
54641;SDS011;40536;53.194;5.728;2023-08-17T14:31:24;28.38;;;26.50;;
54641;SDS011;40536;53.194;5.728;2023-08-17T14:33:50;26.55;;;25.08;;